sensor_id;sensor_type;location;lat;lon;timestamp;pressure;altitude;pressure_sealevel;temperature;humidity
6028;BME280;3042;43.194;27.646;2023-08-06T00:01:01;100101.44;;;29.97;100.00
6028;BME280;3042;43.194;27.646;2023-08-06T00:03:28;100293.88;;;31.21;100.00
6028;BME280;3042;43.194;27.646;2023-08-06T00:05:55;100287.69;;;31.20;100.00
6028;BME280;3042;43.194;27.646;2023-08-06T00:08:24;100298.53;;;30.98;100.00
6028;BME280;3042;43.194;27.646;2023-08-06T00:10:51;100297.97;;;30.91;100.00
6028;BME280;3042;43.194;27.646;2023-08-06T00:13:18;100282.44;;;31.00;100.00
6028;BME280;3042;43.194;27.646;2023-08-06T00:15:45;100289.00;;;30.92;100.00
6028;BME280;3042;43.194;27.646;2023-08-06T00:18:12;100297.81;;;30.95;100.00
6028;BME280;3042;43.194;27.646;2023-08-06T00:20:40;100300.06;;;30.83;100.00
6028;BME280;3042;43.194;27.646;2023-08-06T00:23:07;100260.59;;;30.54;100.00
6028;BME280;3042;43.194;27.646;2023-08-06T00:25:36;100300.81;;;30.68;100.00
6028;BME280;3042;43.194;27.646;2023-08-06T00:28:03;100286.25;;;30.75;100.00
6028;BME280;3042;43.194;27.646;2023-08-06T00:30:31;100170.84;;;30.13;100.00
6028;BME280;3042;43.194;27.646;2023-08-06T00:32:58;100277.75;;;30.86;100.00
6028;BME280;3042;43.194;27.646;2023-08-06T00:35:25;100263.31;;;30.71;100.00
6028;BME280;3042;43.194;27.646;2023-08-06T00:37:52;100238.06;;;30.78;100.00
6028;BME280;3042;43.194;27.646;2023-08-06T00:40:20;100273.41;;;30.83;100.00
6028;BME280;3042;43.194;27.646;2023-08-06T00:42:51;100276.22;;;30.80;100.00
6028;BME280;3042;43.194;27.646;2023-08-06T00:45:18;100196.06;;;30.25;100.00
6028;BME280;3042;43.194;27.646;2023-08-06T00:47:45;100283.19;;;30.84;100.00
6028;BME280;3042;43.194;27.646;2023-08-06T00:50:13;100281.38;;;30.85;100.00
6028;BME280;3042;43.194;27.646;2023-08-06T00:52:41;100279.69;;;30.82;100.00
6028;BME280;3042;43.194;27.646;2023-08-06T00:55:09;100276.66;;;30.71;100.00
6028;BME280;3042;43.194;27.646;2023-08-06T00:57:37;100263.03;;;30.77;100.00
6028;BME280;3042;43.194;27.646;2023-08-06T01:00:07;100253.16;;;30.79;100.00
6028;BME280;3042;43.194;27.646;2023-08-06T01:02:34;100256.25;;;30.70;100.00
6028;BME280;3042;43.194;27.646;2023-08-06T01:05:01;100257.13;;;30.70;100.00
6028;BME280;3042;43.194;27.646;2023-08-06T01:07:37;100251.84;;;30.69;100.00
6028;BME280;3042;43.194;27.646;2023-08-06T01:10:21;100249.34;;;30.66;100.00
6028;BME280;3042;43.194;27.646;2023-08-06T01:12:57;100246.44;;;30.52;100.00
6028;BME280;3042;43.194;27.646;2023-08-06T01:15:30;99995.09;;;29.15;100.00
6028;BME280;3042;43.194;27.646;2023-08-06T01:17:58;100236.16;;;30.63;100.00
6028;BME280;3042;43.194;27.646;2023-08-06T01:20:29;100231.72;;;30.62;100.00
6028;BME280;3042;43.194;27.646;2023-08-06T01:22:56;100231.09;;;30.57;100.00
6028;BME280;3042;43.194;27.646;2023-08-06T01:25:28;100040.16;;;29.39;100.00
6028;BME280;3042;43.194;27.646;2023-08-06T01:28:03;100237.50;;;30.53;100.00
6028;BME280;3042;43.194;27.646;2023-08-06T01:30:33;100112.78;;;29.82;100.00
6028;BME280;3042;43.194;27.646;2023-08-06T01:33:04;100215.44;;;30.30;100.00
6028;BME280;3042;43.194;27.646;2023-08-06T01:35:34;100209.16;;;30.31;100.00
6028;BME280;3042;43.194;27.646;2023-08-06T01:38:02;100170.16;;;30.09;100.00
6028;BME280;3042;43.194;27.646;2023-08-06T01:40:30;100137.16;;;29.93;100.00
6028;BME280;3042;43.194;27.646;2023-08-06T01:42:58;100220.22;;;30.42;100.00
6028;BME280;3042;43.194;27.646;2023-08-06T01:45:25;100210.41;;;30.43;100.00
6028;BME280;3042;43.194;27.646;2023-08-06T01:47:52;100206.94;;;30.41;100.00
6028;BME280;3042;43.194;27.646;2023-08-06T01:50:19;100206.03;;;30.42;100.00
6028;BME280;3042;43.194;27.646;2023-08-06T01:52:47;100197.00;;;30.44;100.00
6028;BME280;3042;43.194;27.646;2023-08-06T01:55:14;100199.72;;;30.43;100.00
6028;BME280;3042;43.194;27.646;2023-08-06T01:57:42;100187.47;;;30.39;100.00
6028;BME280;3042;43.194;27.646;2023-08-06T02:00:13;100175.69;;;30.44;100.00
6028;BME280;3042;43.194;27.646;2023-08-06T02:02:40;100167.75;;;30.43;100.00
6028;BME280;3042;43.194;27.646;2023-08-06T02:05:07;100163.25;;;30.43;100.00
6028;BME280;3042;43.194;27.646;2023-08-06T02:07:34;100115.69;;;30.15;100.00
6028;BME280;3042;43.194;27.646;2023-08-06T02:10:03;100156.28;;;30.41;100.00
6028;BME280;3042;43.194;27.646;2023-08-06T02:12:30;100153.59;;;30.41;100.00
6028;BME280;3042;43.194;27.646;2023-08-06T02:14:57;100157.94;;;30.43;100.00
6028;BME280;3042;43.194;27.646;2023-08-06T02:17:26;100104.16;;;30.15;100.00
6028;BME280;3042;43.194;27.646;2023-08-06T02:19:53;100158.38;;;30.34;100.00
6028;BME280;3042;43.194;27.646;2023-08-06T02:22:20;100154.94;;;30.32;100.00
6028;BME280;3042;43.194;27.646;2023-08-06T02:24:49;100166.16;;;30.39;100.00
6028;BME280;3042;43.194;27.646;2023-08-06T02:27:17;100168.59;;;30.43;100.00
6028;BME280;3042;43.194;27.646;2023-08-06T02:29:45;100161.69;;;30.39;100.00
6028;BME280;3042;43.194;27.646;2023-08-06T02:32:13;100129.91;;;30.16;100.00
6028;BME280;3042;43.194;27.646;2023-08-06T02:34:40;100154.78;;;30.35;100.00
6028;BME280;3042;43.194;27.646;2023-08-06T02:37:07;100092.22;;;30.04;100.00
6028;BME280;3042;43.194;27.646;2023-08-06T02:39:34;100166.44;;;30.52;100.00
6028;BME280;3042;43.194;27.646;2023-08-06T02:42:05;100167.88;;;30.59;100.00
6028;BME280;3042;43.194;27.646;2023-08-06T02:44:34;100176.50;;;30.64;100.00
6028;BME280;3042;43.194;27.646;2023-08-06T02:47:01;100179.97;;;30.66;100.00
6028;BME280;3042;43.194;27.646;2023-08-06T02:49:28;100183.88;;;30.59;100.00
6028;BME280;3042;43.194;27.646;2023-08-06T02:51:55;100189.88;;;30.05;100.00
6028;BME280;3042;43.194;27.646;2023-08-06T02:54:22;100200.69;;;29.82;100.00
6028;BME280;3042;43.194;27.646;2023-08-06T02:56:50;100167.13;;;29.57;100.00
6028;BME280;3042;43.194;27.646;2023-08-06T02:59:17;100141.56;;;29.33;100.00
6028;BME280;3042;43.194;27.646;2023-08-06T03:01:45;100110.91;;;29.02;100.00
6028;BME280;3042;43.194;27.646;2023-08-06T03:04:12;100197.50;;;29.53;100.00
6028;BME280;3042;43.194;27.646;2023-08-06T03:06:39;100210.41;;;29.62;100.00
6028;BME280;3042;43.194;27.646;2023-08-06T03:09:06;100159.16;;;29.37;100.00
6028;BME280;3042;43.194;27.646;2023-08-06T03:11:33;100200.97;;;29.76;100.00
6028;BME280;3042;43.194;27.646;2023-08-06T03:14:00;100212.31;;;29.81;100.00
6028;BME280;3042;43.194;27.646;2023-08-06T03:16:27;100204.69;;;29.92;100.00
6028;BME280;3042;43.194;27.646;2023-08-06T03:18:56;100200.84;;;29.99;100.00
6028;BME280;3042;43.194;27.646;2023-08-06T03:21:23;100202.50;;;30.02;100.00
6028;BME280;3042;43.194;27.646;2023-08-06T03:23:50;100198.88;;;30.03;100.00
6028;BME280;3042;43.194;27.646;2023-08-06T03:26:17;100200.53;;;30.05;100.00
6028;BME280;3042;43.194;27.646;2023-08-06T03:28:44;100137.66;;;29.62;100.00
6028;BME280;3042;43.194;27.646;2023-08-06T03:31:11;100202.28;;;30.06;100.00
6028;BME280;3042;43.194;27.646;2023-08-06T03:33:38;100198.66;;;30.07;100.00
6028;BME280;3042;43.194;27.646;2023-08-06T03:36:07;100189.59;;;30.12;100.00
6028;BME280;3042;43.194;27.646;2023-08-06T03:38:34;100173.63;;;30.12;100.00
6028;BME280;3042;43.194;27.646;2023-08-06T03:41:01;100172.53;;;30.16;100.00
6028;BME280;3042;43.194;27.646;2023-08-06T03:43:28;100175.06;;;30.19;100.00
6028;BME280;3042;43.194;27.646;2023-08-06T03:45:55;100185.56;;;30.22;100.00
6028;BME280;3042;43.194;27.646;2023-08-06T03:48:22;100196.63;;;30.33;100.00
6028;BME280;3042;43.194;27.646;2023-08-06T03:50:49;100189.94;;;30.43;100.00
6028;BME280;3042;43.194;27.646;2023-08-06T03:53:17;100177.75;;;30.57;100.00
6028;BME280;3042;43.194;27.646;2023-08-06T03:55:44;100177.16;;;30.69;100.00
6028;BME280;3042;43.194;27.646;2023-08-06T03:58:11;100144.22;;;30.70;100.00
6028;BME280;3042;43.194;27.646;2023-08-06T04:00:38;100168.78;;;30.96;100.00
6028;BME280;3042;43.194;27.646;2023-08-06T04:03:05;100184.25;;;31.06;100.00
6028;BME280;3042;43.194;27.646;2023-08-06T04:05:32;100180.72;;;31.23;100.00
6028;BME280;3042;43.194;27.646;2023-08-06T04:07:59;100177.94;;;31.44;100.00
6028;BME280;3042;43.194;27.646;2023-08-06T04:10:28;100180.44;;;31.64;100.00
6028;BME280;3042;43.194;27.646;2023-08-06T04:12:57;100170.34;;;31.87;100.00
6028;BME280;3042;43.194;27.646;2023-08-06T04:15:24;100168.63;;;32.03;100.00
6028;BME280;3042;43.194;27.646;2023-08-06T04:17:51;100172.78;;;32.25;100.00
6028;BME280;3042;43.194;27.646;2023-08-06T04:20:17;100056.72;;;31.80;100.00
6028;BME280;3042;43.194;27.646;2023-08-06T04:22:44;100158.75;;;32.69;100.00
6028;BME280;3042;43.194;27.646;2023-08-06T04:25:14;100156.69;;;32.74;100.00
6028;BME280;3042;43.194;27.646;2023-08-06T04:27:47;100149.25;;;32.63;100.00
6028;BME280;3042;43.194;27.646;2023-08-06T04:30:14;100164.63;;;32.59;100.00
6028;BME280;3042;43.194;27.646;2023-08-06T04:32:41;100152.38;;;32.55;100.00
6028;BME280;3042;43.194;27.646;2023-08-06T04:35:08;100127.66;;;32.18;100.00
6028;BME280;3042;43.194;27.646;2023-08-06T04:37:35;100149.22;;;32.15;100.00
6028;BME280;3042;43.194;27.646;2023-08-06T04:40:03;100136.13;;;32.27;100.00
6028;BME280;3042;43.194;27.646;2023-08-06T04:42:30;100117.84;;;32.51;100.00
6028;BME280;3042;43.194;27.646;2023-08-06T04:44:58;100056.25;;;32.21;100.00
6028;BME280;3042;43.194;27.646;2023-08-06T04:47:25;100119.97;;;32.76;100.00
6028;BME280;3042;43.194;27.646;2023-08-06T04:49:53;100106.41;;;32.79;100.00
6028;BME280;3042;43.194;27.646;2023-08-06T04:52:20;100102.78;;;32.80;100.00
6028;BME280;3042;43.194;27.646;2023-08-06T04:54:47;100058.44;;;32.76;100.00
6028;BME280;3042;43.194;27.646;2023-08-06T04:57:14;100096.34;;;33.43;100.00
6028;BME280;3042;43.194;27.646;2023-08-06T04:59:41;100093.59;;;33.45;100.00
6028;BME280;3042;43.194;27.646;2023-08-06T05:02:09;100080.41;;;33.56;100.00
6028;BME280;3042;43.194;27.646;2023-08-06T05:04:36;100111.44;;;33.74;100.00
6028;BME280;3042;43.194;27.646;2023-08-06T05:07:04;100106.84;;;33.62;100.00
6028;BME280;3042;43.194;27.646;2023-08-06T05:09:32;100103.19;;;33.92;100.00
6028;BME280;3042;43.194;27.646;2023-08-06T05:12:00;100113.16;;;33.75;100.00
6028;BME280;3042;43.194;27.646;2023-08-06T05:14:27;100106.06;;;34.03;100.00
6028;BME280;3042;43.194;27.646;2023-08-06T05:16:54;100040.31;;;33.69;100.00
6028;BME280;3042;43.194;27.646;2023-08-06T05:19:23;100098.88;;;34.18;100.00
6028;BME280;3042;43.194;27.646;2023-08-06T05:21:50;100102.97;;;33.95;100.00
6028;BME280;3042;43.194;27.646;2023-08-06T05:24:17;100090.63;;;34.06;100.00
6028;BME280;3042;43.194;27.646;2023-08-06T05:26:44;100090.53;;;34.22;100.00
6028;BME280;3042;43.194;27.646;2023-08-06T05:29:13;99978.28;;;33.17;100.00
6028;BME280;3042;43.194;27.646;2023-08-06T05:31:40;100108.94;;;33.85;100.00
6028;BME280;3042;43.194;27.646;2023-08-06T05:34:07;100109.53;;;33.76;100.00
6028;BME280;3042;43.194;27.646;2023-08-06T05:36:36;100105.50;;;33.83;100.00
6028;BME280;3042;43.194;27.646;2023-08-06T05:39:03;100027.09;;;33.51;100.00
6028;BME280;3042;43.194;27.646;2023-08-06T05:41:30;100087.47;;;33.85;100.00
6028;BME280;3042;43.194;27.646;2023-08-06T05:43:57;100084.25;;;34.09;100.00
6028;BME280;3042;43.194;27.646;2023-08-06T05:46:23;100088.41;;;34.28;100.00
6028;BME280;3042;43.194;27.646;2023-08-06T05:48:51;100048.47;;;34.09;100.00
6028;BME280;3042;43.194;27.646;2023-08-06T05:51:18;100082.81;;;34.72;100.00
6028;BME280;3042;43.194;27.646;2023-08-06T05:53:46;100064.88;;;35.13;100.00
6028;BME280;3042;43.194;27.646;2023-08-06T05:56:14;100055.63;;;35.29;100.00
6028;BME280;3042;43.194;27.646;2023-08-06T05:58:41;100054.34;;;35.61;100.00
6028;BME280;3042;43.194;27.646;2023-08-06T06:01:08;100029.84;;;35.27;100.00
6028;BME280;3042;43.194;27.646;2023-08-06T06:03:35;100054.78;;;35.67;100.00
6028;BME280;3042;43.194;27.646;2023-08-06T06:06:02;100023.03;;;35.60;100.00
6028;BME280;3042;43.194;27.646;2023-08-06T06:08:30;100015.84;;;35.73;100.00
6028;BME280;3042;43.194;27.646;2023-08-06T06:10:58;100051.78;;;35.96;100.00
6028;BME280;3042;43.194;27.646;2023-08-06T06:13:25;100056.00;;;36.00;100.00
6028;BME280;3042;43.194;27.646;2023-08-06T06:15:54;100015.84;;;36.10;100.00
6028;BME280;3042;43.194;27.646;2023-08-06T06:18:21;100065.91;;;36.61;100.00
6028;BME280;3042;43.194;27.646;2023-08-06T06:20:48;100070.31;;;36.38;100.00
6028;BME280;3042;43.194;27.646;2023-08-06T06:23:15;100025.59;;;36.24;100.00
6028;BME280;3042;43.194;27.646;2023-08-06T06:25:42;100011.41;;;36.57;100.00
6028;BME280;3042;43.194;27.646;2023-08-06T06:28:11;100052.50;;;37.07;100.00
6028;BME280;3042;43.194;27.646;2023-08-06T06:30:38;100018.06;;;36.64;100.00
6028;BME280;3042;43.194;27.646;2023-08-06T06:33:05;100060.97;;;36.90;100.00
6028;BME280;3042;43.194;27.646;2023-08-06T06:35:32;100070.63;;;36.57;100.00
6028;BME280;3042;43.194;27.646;2023-08-06T06:37:59;99811.34;;;34.51;100.00
6028;BME280;3042;43.194;27.646;2023-08-06T06:40:26;100060.22;;;36.28;100.00
6028;BME280;3042;43.194;27.646;2023-08-06T06:42:53;100061.38;;;36.37;100.00
6028;BME280;3042;43.194;27.646;2023-08-06T06:45:22;100032.22;;;35.32;100.00
6028;BME280;3042;43.194;27.646;2023-08-06T06:47:49;100064.44;;;35.70;100.00
6028;BME280;3042;43.194;27.646;2023-08-06T06:50:16;100005.91;;;35.24;100.00
6028;BME280;3042;43.194;27.646;2023-08-06T06:52:43;100060.81;;;35.71;100.00
6028;BME280;3042;43.194;27.646;2023-08-06T06:55:10;100047.28;;;35.97;100.00
6028;BME280;3042;43.194;27.646;2023-08-06T06:57:37;100040.63;;;36.26;100.00
6028;BME280;3042;43.194;27.646;2023-08-06T07:00:05;100035.72;;;36.68;100.00
6028;BME280;3042;43.194;27.646;2023-08-06T07:02:34;99894.50;;;36.02;100.00
6028;BME280;3042;43.194;27.646;2023-08-06T07:05:01;100037.63;;;36.90;100.00
6028;BME280;3042;43.194;27.646;2023-08-06T07:07:28;100043.66;;;37.05;100.00
6028;BME280;3042;43.194;27.646;2023-08-06T07:09:55;100040.75;;;37.20;100.00
6028;BME280;3042;43.194;27.646;2023-08-06T07:12:22;100060.94;;;36.54;100.00
6028;BME280;3042;43.194;27.646;2023-08-06T07:14:50;99909.06;;;36.34;100.00
6028;BME280;3042;43.194;27.646;2023-08-06T07:17:22;100045.06;;;36.87;100.00
6028;BME280;3042;43.194;27.646;2023-08-06T07:19:50;99978.28;;;37.26;100.00
6028;BME280;3042;43.194;27.646;2023-08-06T07:22:17;99924.88;;;37.08;100.00
6028;BME280;3042;43.194;27.646;2023-08-06T07:24:44;99911.88;;;37.13;100.00
6028;BME280;3042;43.194;27.646;2023-08-06T07:27:11;100031.59;;;37.33;100.00
6028;BME280;3042;43.194;27.646;2023-08-06T07:29:38;100027.09;;;37.56;100.00
6028;BME280;3042;43.194;27.646;2023-08-06T07:32:07;100028.78;;;37.69;100.00
6028;BME280;3042;43.194;27.646;2023-08-06T07:34:34;99996.41;;;37.12;100.00
6028;BME280;3042;43.194;27.646;2023-08-06T07:37:02;100042.00;;;37.49;100.00
6028;BME280;3042;43.194;27.646;2023-08-06T07:39:29;100035.84;;;37.25;100.00
6028;BME280;3042;43.194;27.646;2023-08-06T07:41:56;100032.56;;;37.21;100.00
6028;BME280;3042;43.194;27.646;2023-08-06T07:44:23;100032.28;;;37.13;100.00
6028;BME280;3042;43.194;27.646;2023-08-06T07:46:50;99948.75;;;36.55;100.00
6028;BME280;3042;43.194;27.646;2023-08-06T07:49:18;99677.81;;;35.40;100.00
6028;BME280;3042;43.194;27.646;2023-08-06T07:51:45;99918.22;;;37.01;100.00
6028;BME280;3042;43.194;27.646;2023-08-06T07:54:13;100004.03;;;37.18;100.00
6028;BME280;3042;43.194;27.646;2023-08-06T07:56:40;100032.94;;;37.28;100.00
6028;BME280;3042;43.194;27.646;2023-08-06T07:59:07;100026.81;;;37.37;100.00
6028;BME280;3042;43.194;27.646;2023-08-06T08:01:34;100035.13;;;37.11;100.00
6028;BME280;3042;43.194;27.646;2023-08-06T08:04:01;100021.78;;;37.44;100.00
6028;BME280;3042;43.194;27.646;2023-08-06T08:06:30;100028.75;;;37.46;100.00
6028;BME280;3042;43.194;27.646;2023-08-06T08:08:57;100016.78;;;37.73;100.00
6028;BME280;3042;43.194;27.646;2023-08-06T08:11:26;100019.69;;;37.81;100.00
6028;BME280;3042;43.194;27.646;2023-08-06T08:13:53;100019.69;;;37.81;100.00
6028;BME280;3042;43.194;27.646;2023-08-06T08:16:20;100018.72;;;37.71;100.00
6028;BME280;3042;43.194;27.646;2023-08-06T08:18:47;100012.09;;;37.86;100.00
6028;BME280;3042;43.194;27.646;2023-08-06T08:21:14;100006.44;;;37.89;100.00
6028;BME280;3042;43.194;27.646;2023-08-06T08:23:41;100002.25;;;37.96;100.00
6028;BME280;3042;43.194;27.646;2023-08-06T08:26:09;99996.41;;;38.03;100.00
6028;BME280;3042;43.194;27.646;2023-08-06T08:28:37;99993.91;;;37.99;100.00
6028;BME280;3042;43.194;27.646;2023-08-06T08:31:08;99938.94;;;37.68;100.00
6028;BME280;3042;43.194;27.646;2023-08-06T08:33:36;99999.09;;;37.91;100.00
6028;BME280;3042;43.194;27.646;2023-08-06T08:36:04;99993.59;;;37.82;100.00
6028;BME280;3042;43.194;27.646;2023-08-06T08:38:31;99990.84;;;38.04;100.00
6028;BME280;3042;43.194;27.646;2023-08-06T08:40:58;99957.88;;;37.89;100.00
6028;BME280;3042;43.194;27.646;2023-08-06T08:43:25;99989.69;;;38.18;100.00
6028;BME280;3042;43.194;27.646;2023-08-06T08:45:54;99981.00;;;38.47;100.00
6028;BME280;3042;43.194;27.646;2023-08-06T08:48:24;99987.88;;;38.51;100.00
6028;BME280;3042;43.194;27.646;2023-08-06T08:50:52;99986.66;;;38.43;100.00
6028;BME280;3042;43.194;27.646;2023-08-06T08:53:21;99981.50;;;38.52;100.00
6028;BME280;3042;43.194;27.646;2023-08-06T08:55:49;99985.97;;;38.30;100.00
6028;BME280;3042;43.194;27.646;2023-08-06T08:58:16;99989.16;;;38.35;100.00
6028;BME280;3042;43.194;27.646;2023-08-06T09:00:45;99977.25;;;38.38;100.00
6028;BME280;3042;43.194;27.646;2023-08-06T09:03:14;99954.94;;;38.57;100.00
6028;BME280;3042;43.194;27.646;2023-08-06T09:05:44;99976.72;;;38.12;100.00
6028;BME280;3042;43.194;27.646;2023-08-06T09:08:12;99954.28;;;38.32;100.00
6028;BME280;3042;43.194;27.646;2023-08-06T09:10:43;99957.81;;;38.12;100.00
6028;BME280;3042;43.194;27.646;2023-08-06T09:13:10;99962.16;;;38.03;100.00
6028;BME280;3042;43.194;27.646;2023-08-06T09:15:38;99964.47;;;37.96;100.00
6028;BME280;3042;43.194;27.646;2023-08-06T09:18:09;99955.19;;;38.00;100.00
6028;BME280;3042;43.194;27.646;2023-08-06T09:20:39;99938.09;;;38.32;100.00
6028;BME280;3042;43.194;27.646;2023-08-06T09:23:09;99936.84;;;38.36;100.00
6028;BME280;3042;43.194;27.646;2023-08-06T09:25:38;99949.03;;;38.10;100.00
6028;BME280;3042;43.194;27.646;2023-08-06T09:28:06;99946.56;;;38.07;100.00
6028;BME280;3042;43.194;27.646;2023-08-06T09:30:35;99955.19;;;38.00;100.00
6028;BME280;3042;43.194;27.646;2023-08-06T09:33:03;99876.41;;;37.95;100.00
6028;BME280;3042;43.194;27.646;2023-08-06T09:35:31;99945.94;;;38.14;100.00
6028;BME280;3042;43.194;27.646;2023-08-06T09:38:07;99935.41;;;38.32;100.00
6028;BME280;3042;43.194;27.646;2023-08-06T09:40:35;99917.81;;;38.17;100.00
6028;BME280;3042;43.194;27.646;2023-08-06T09:43:02;99901.38;;;38.62;100.00
6028;BME280;3042;43.194;27.646;2023-08-06T09:45:31;99907.50;;;38.64;100.00
6028;BME280;3042;43.194;27.646;2023-08-06T09:47:58;99915.22;;;38.48;100.00
6028;BME280;3042;43.194;27.646;2023-08-06T09:50:29;99911.69;;;38.47;100.00
6028;BME280;3042;43.194;27.646;2023-08-06T09:52:57;99884.38;;;38.71;100.00
6028;BME280;3042;43.194;27.646;2023-08-06T09:55:26;99883.03;;;38.44;100.00
6028;BME280;3042;43.194;27.646;2023-08-06T09:57:53;99844.34;;;38.55;100.00
6028;BME280;3042;43.194;27.646;2023-08-06T10:00:21;99890.91;;;38.69;100.00
6028;BME280;3042;43.194;27.646;2023-08-06T10:02:49;99900.56;;;38.29;100.00
6028;BME280;3042;43.194;27.646;2023-08-06T10:05:20;99859.03;;;38.20;100.00
6028;BME280;3042;43.194;27.646;2023-08-06T10:07:48;99813.56;;;37.51;100.00
6028;BME280;3042;43.194;27.646;2023-08-06T10:10:16;99899.91;;;38.16;100.00
6028;BME280;3042;43.194;27.646;2023-08-06T10:12:48;99884.09;;;38.32;100.00
6028;BME280;3042;43.194;27.646;2023-08-06T10:15:19;99842.31;;;38.06;100.00
6028;BME280;3042;43.194;27.646;2023-08-06T10:17:51;99866.72;;;38.67;100.00
6028;BME280;3042;43.194;27.646;2023-08-06T10:20:18;99867.25;;;38.61;100.00
6028;BME280;3042;43.194;27.646;2023-08-06T10:22:59;99858.28;;;38.39;100.00
6028;BME280;3042;43.194;27.646;2023-08-06T10:25:30;99820.44;;;38.09;100.00
6028;BME280;3042;43.194;27.646;2023-08-06T10:27:59;99845.81;;;37.85;100.00
6028;BME280;3042;43.194;27.646;2023-08-06T10:30:28;99761.53;;;37.39;100.00
6028;BME280;3042;43.194;27.646;2023-08-06T10:32:56;99779.69;;;37.70;100.00
6028;BME280;3042;43.194;27.646;2023-08-06T10:35:30;99845.09;;;37.83;100.00
6028;BME280;3042;43.194;27.646;2023-08-06T10:38:03;99836.53;;;38.10;100.00
6028;BME280;3042;43.194;27.646;2023-08-06T10:40:31;99834.78;;;38.30;100.00
6028;BME280;3042;43.194;27.646;2023-08-06T10:43:00;99662.44;;;37.32;100.00
6028;BME280;3042;43.194;27.646;2023-08-06T10:45:27;99849.63;;;38.15;100.00
6028;BME280;3042;43.194;27.646;2023-08-06T10:47:57;99792.59;;;37.87;100.00
6028;BME280;3042;43.194;27.646;2023-08-06T10:50:25;99847.84;;;38.25;100.00
6028;BME280;3042;43.194;27.646;2023-08-06T10:52:52;99828.81;;;37.73;100.00
6028;BME280;3042;43.194;27.646;2023-08-06T10:55:23;99755.41;;;36.83;100.00
6028;BME280;3042;43.194;27.646;2023-08-06T10:57:51;99830.00;;;37.80;100.00
6028;BME280;3042;43.194;27.646;2023-08-06T11:00:20;99763.31;;;37.50;100.00
6028;BME280;3042;43.194;27.646;2023-08-06T11:02:48;99830.28;;;37.77;100.00
6028;BME280;3042;43.194;27.646;2023-08-06T11:05:15;99847.72;;;36.96;100.00
6028;BME280;3042;43.194;27.646;2023-08-06T11:07:43;99827.88;;;37.08;100.00
6028;BME280;3042;43.194;27.646;2023-08-06T11:10:11;99725.31;;;36.44;100.00
6028;BME280;3042;43.194;27.646;2023-08-06T11:12:39;99756.22;;;36.94;100.00
6028;BME280;3042;43.194;27.646;2023-08-06T11:15:07;99755.03;;;37.42;100.00
6028;BME280;3042;43.194;27.646;2023-08-06T11:17:37;99801.97;;;37.72;100.00
6028;BME280;3042;43.194;27.646;2023-08-06T11:20:06;99791.34;;;37.91;100.00
6028;BME280;3042;43.194;27.646;2023-08-06T11:22:34;99790.63;;;37.89;100.00
6028;BME280;3042;43.194;27.646;2023-08-06T11:25:02;99790.50;;;37.70;100.00
6028;BME280;3042;43.194;27.646;2023-08-06T11:27:29;99787.47;;;37.52;100.00
6028;BME280;3042;43.194;27.646;2023-08-06T11:29:56;99802.84;;;37.29;100.00
6028;BME280;3042;43.194;27.646;2023-08-06T11:32:23;99778.72;;;37.27;100.00
6028;BME280;3042;43.194;27.646;2023-08-06T11:34:52;99824.84;;;37.45;100.00
6028;BME280;3042;43.194;27.646;2023-08-06T11:37:21;100008.06;;;36.78;100.00
6028;BME280;3042;43.194;27.646;2023-08-06T11:39:49;100098.22;;;35.74;100.00
6028;BME280;3042;43.194;27.646;2023-08-06T11:42:17;100091.09;;;32.67;100.00
6028;BME280;3042;43.194;27.646;2023-08-06T11:44:44;100145.44;;;28.81;100.00
6028;BME280;3042;43.194;27.646;2023-08-06T11:47:16;100108.19;;;28.15;100.00
6028;BME280;3042;43.194;27.646;2023-08-06T11:49:54;100032.06;;;28.36;100.00
6028;BME280;3042;43.194;27.646;2023-08-06T11:52:25;99999.84;;;28.44;100.00
6028;BME280;3042;43.194;27.646;2023-08-06T11:55:02;100052.19;;;28.42;100.00
6028;BME280;3042;43.194;27.646;2023-08-06T11:57:34;100092.47;;;28.09;100.00
6028;BME280;3042;43.194;27.646;2023-08-06T12:00:03;100095.56;;;27.98;100.00
6028;BME280;3042;43.194;27.646;2023-08-06T12:02:32;100092.75;;;28.02;100.00
6028;BME280;3042;43.194;27.646;2023-08-06T12:05:13;100061.63;;;28.51;100.00
6028;BME280;3042;43.194;27.646;2023-08-06T12:07:54;99974.41;;;28.16;100.00
6028;BME280;3042;43.194;27.646;2023-08-06T12:10:30;100066.06;;;28.72;100.00
6028;BME280;3042;43.194;27.646;2023-08-06T12:13:05;100055.31;;;28.75;100.00
6028;BME280;3042;43.194;27.646;2023-08-06T12:15:45;100024.78;;;28.84;100.00
6028;BME280;3042;43.194;27.646;2023-08-06T12:18:17;100029.78;;;28.92;100.00
6028;BME280;3042;43.194;27.646;2023-08-06T12:20:57;100029.47;;;29.20;100.00
6028;BME280;3042;43.194;27.646;2023-08-06T12:23:31;100047.84;;;29.45;100.00
6028;BME280;3042;43.194;27.646;2023-08-06T12:26:04;100043.31;;;29.67;100.00
6028;BME280;3042;43.194;27.646;2023-08-06T12:28:39;100018.19;;;29.92;100.00
6028;BME280;3042;43.194;27.646;2023-08-06T12:31:13;100030.09;;;30.40;100.00
6028;BME280;3042;43.194;27.646;2023-08-06T12:33:47;100057.56;;;30.60;100.00
6028;BME280;3042;43.194;27.646;2023-08-06T12:36:25;100081.03;;;30.89;100.00
6028;BME280;3042;43.194;27.646;2023-08-06T12:38:52;100085.88;;;31.16;100.00
6028;BME280;3042;43.194;27.646;2023-08-06T12:41:22;100098.69;;;31.27;100.00
6028;BME280;3042;43.194;27.646;2023-08-06T12:43:54;100108.00;;;31.53;100.00
6028;BME280;3042;43.194;27.646;2023-08-06T12:46:26;100105.59;;;31.48;100.00
6028;BME280;3042;43.194;27.646;2023-08-06T12:48:53;100074.16;;;31.53;100.00
6028;BME280;3042;43.194;27.646;2023-08-06T12:51:38;99973.00;;;31.30;100.00
6028;BME280;3042;43.194;27.646;2023-08-06T12:54:13;100073.88;;;31.75;100.00
6028;BME280;3042;43.194;27.646;2023-08-06T12:56:42;100110.50;;;31.73;100.00
6028;BME280;3042;43.194;27.646;2023-08-06T12:59:10;99937.47;;;30.96;100.00